Time;durP1;ratioP1;P1;durP2;ratioP2;P2;SDS_P1;SDS_P2;PMS_P1;PMS_P2;Temp;Humidity;BMP_temperature;BMP_pressure;BME280_temperature;BME280_humidity;BME280_pressure;Samples;Min_cycle;Max_cycle;Signal;HPM_P1;HPM_P2
2021/09/09 00:00:24;;;;;;;28.92;21.55;;;14.50;99.90;;;;;;5009545;28;20163;-81
2021/09/09 00:02:51;;;;;;;35.42;22.98;;;14.30;99.90;;;;;;4992342;28;20423;-81
2021/09/09 00:05:20;;;;;;;35.33;22.98;;;14.40;99.90;;;;;;4963624;28;20042;-81
2021/09/09 00:07:49;;;;;;;30.25;20.73;;;14.40;99.90;;;;;;4973904;28;20046;-81
2021/09/09 00:10:17;;;;;;;33.95;22.15;;;14.30;99.90;;;;;;4990710;28;20084;-82
2021/09/09 00:12:46;;;;;;;30.63;22.50;;;14.30;99.90;;;;;;4991216;28;20133;-81
2021/09/09 00:15:13;;;;;;;32.03;21.98;;;14.20;99.90;;;;;;4990399;28;20753;-81
2021/09/09 00:17:41;;;;;;;35.53;23.85;;;14.20;99.90;;;;;;4999006;28;20052;-81
2021/09/09 00:20:10;;;;;;;28.10;21.33;;;14.20;99.90;;;;;;5001867;28;20045;-81
2021/09/09 00:22:39;;;;;;;29.05;21.48;;;14.30;99.90;;;;;;4983255;28;20108;-81
2021/09/09 00:25:07;;;;;;;32.60;20.88;;;14.30;99.90;;;;;;4975550;28;20483;-82
2021/09/09 00:27:35;;;;;;;36.58;22.50;;;14.30;99.90;;;;;;5007188;28;20076;-81
2021/09/09 00:30:06;;;;;;;35.53;21.85;;;14.40;99.90;;;;;;4974443;28;20149;-82
2021/09/09 00:32:34;;;;;;;31.85;21.98;;;14.40;99.90;;;;;;4991323;28;20053;-82
2021/09/09 00:35:01;;;;;;;29.02;20.88;;;14.30;99.90;;;;;;4972192;28;20148;-81
2021/09/09 00:37:29;;;;;;;34.15;24.30;;;14.20;99.90;;;;;;5002734;28;20068;-81
2021/09/09 00:39:56;;;;;;;33.58;23.73;;;14.20;99.90;;;;;;5028950;28;20053;-81
2021/09/09 00:42:23;;;;;;;32.28;22.25;;;14.10;99.90;;;;;;4995518;28;20049;-81
2021/09/09 00:44:49;;;;;;;32.30;22.52;;;14.10;99.90;;;;;;4976896;28;20526;-81
2021/09/09 00:47:16;;;;;;;32.08;23.70;;;14.00;99.90;;;;;;5013969;28;20077;-81
2021/09/09 00:49:44;;;;;;;33.55;23.27;;;13.90;99.90;;;;;;5004442;28;20057;-82
2021/09/09 00:52:13;;;;;;;38.80;25.73;;;13.70;99.90;;;;;;5013400;28;20136;-82
2021/09/09 00:54:42;;;;;;;36.35;24.75;;;13.50;99.90;;;;;;5008024;28;20057;-81
2021/09/09 00:57:09;;;;;;;38.65;23.85;;;13.40;99.90;;;;;;4996189;28;20056;-79
2021/09/09 00:59:36;;;;;;;42.60;26.73;;;13.20;99.90;;;;;;4994626;28;20080;-80
2021/09/09 01:02:04;;;;;;;37.50;26.48;;;13.10;99.90;;;;;;4976228;28;20061;-81
2021/09/09 01:04:32;;;;;;;38.92;26.15;;;13.10;99.90;;;;;;4975145;28;20038;-81
2021/09/09 01:07:00;;;;;;;36.03;24.13;;;13.00;99.90;;;;;;4987443;28;20051;-81
2021/09/09 01:09:27;;;;;;;34.40;24.13;;;13.00;99.90;;;;;;4955943;28;20141;-81
2021/09/09 01:11:54;;;;;;;43.03;28.63;;;13.00;99.90;;;;;;4972486;28;20053;-81
2021/09/09 01:14:21;;;;;;;39.70;26.92;;;13.10;99.90;;;;;;5000494;28;20058;-82
2021/09/09 01:16:48;;;;;;;49.03;27.27;;;13.10;99.90;;;;;;4992187;28;20567;-81
2021/09/09 01:19:17;;;;;;;40.70;27.23;;;13.00;99.90;;;;;;4984185;28;20046;-82
2021/09/09 01:21:44;;;;;;;41.22;26.33;;;12.90;99.90;;;;;;4973526;28;20046;-80
2021/09/09 01:24:15;;;;;;;40.20;26.02;;;12.70;99.90;;;;;;4971312;28;20416;-81
2021/09/09 01:26:53;;;;;;;41.03;26.25;;;12.90;99.90;;;;;;4973283;28;20144;-82
2021/09/09 01:29:27;;;;;;;43.72;28.15;;;12.90;99.90;;;;;;5023473;28;20045;-81
2021/09/09 01:31:55;;;;;;;37.10;26.00;;;12.80;99.90;;;;;;4974142;28;20046;-82
2021/09/09 01:34:23;;;;;;;43.78;28.45;;;12.70;99.90;;;;;;5006865;28;20050;-81
2021/09/09 01:36:51;;;;;;;48.60;30.60;;;12.70;99.90;;;;;;5007411;28;20053;-81
2021/09/09 01:39:18;;;;;;;43.75;29.95;;;12.90;99.90;;;;;;4990562;28;20232;-81
2021/09/09 01:41:49;;;;;;;43.13;28.70;;;12.90;99.90;;;;;;4974128;28;20078;-81
2021/09/09 01:44:16;;;;;;;38.67;25.45;;;12.70;99.90;;;;;;4991689;28;20046;-82
2021/09/09 01:46:43;;;;;;;39.55;26.25;;;12.60;99.90;;;;;;5010121;28;20185;-79
2021/09/09 01:49:10;;;;;;;47.85;30.35;;;12.60;99.90;;;;;;5007620;28;20045;-80
2021/09/09 01:51:38;;;;;;;39.55;27.45;;;12.60;99.90;;;;;;4998049;28;20551;-81
2021/09/09 01:54:05;;;;;;;49.47;29.63;;;12.70;99.90;;;;;;4991571;28;20050;-81
2021/09/09 01:56:32;;;;;;;43.05;29.88;;;12.70;99.90;;;;;;5003192;28;20049;-81
2021/09/09 01:58:58;;;;;;;38.22;26.73;;;12.60;99.90;;;;;;5009837;28;20057;-80
2021/09/09 02:01:25;;;;;;;42.35;28.48;;;12.50;99.90;;;;;;4993401;28;20430;-81
2021/09/09 02:03:52;;;;;;;44.15;28.02;;;12.40;99.90;;;;;;4979380;28;20046;-79
2021/09/09 02:06:19;;;;;;;47.00;29.75;;;12.30;99.90;;;;;;5005265;28;20388;-79
2021/09/09 02:08:46;;;;;;;47.33;30.35;;;12.40;99.90;;;;;;4988464;28;20061;-79
2021/09/09 02:11:13;;;;;;;48.10;30.88;;;12.30;99.90;;;;;;4988806;28;20072;-81
2021/09/09 02:13:40;;;;;;;50.47;31.15;;;12.30;99.90;;;;;;4968935;28;20446;-81
2021/09/09 02:16:07;;;;;;;49.17;31.77;;;12.30;99.90;;;;;;4980279;28;20049;-81
2021/09/09 02:18:35;;;;;;;49.70;32.03;;;12.30;99.90;;;;;;4983207;28;20049;-79
2021/09/09 02:21:02;;;;;;;52.13;30.65;;;12.30;99.90;;;;;;4988073;28;20053;-80
2021/09/09 02:23:28;;;;;;;53.78;31.80;;;12.40;99.90;;;;;;4989595;28;20054;-78
2021/09/09 02:25:55;;;;;;;44.17;29.08;;;12.40;99.90;;;;;;4989402;28;20499;-81
2021/09/09 02:28:22;;;;;;;41.40;28.15;;;12.20;99.90;;;;;;5005462;28;20107;-81
2021/09/09 02:30:49;;;;;;;52.33;32.67;;;12.10;99.90;;;;;;5004730;28;20495;-80
2021/09/09 02:33:16;;;;;;;48.70;32.05;;;12.20;99.90;;;;;;5006490;28;20407;-79
2021/09/09 02:35:43;;;;;;;49.65;31.33;;;12.20;99.90;;;;;;4988379;28;20061;-80
2021/09/09 02:38:10;;;;;;;46.83;28.98;;;12.10;99.90;;;;;;4969338;28;20049;-80
2021/09/09 02:40:37;;;;;;;46.75;30.13;;;12.10;99.90;;;;;;4985153;28;20046;-78
2021/09/09 02:43:04;;;;;;;49.15;31.85;;;12.20;99.90;;;;;;4988087;28;20049;-80
2021/09/09 02:45:30;;;;;;;52.38;31.17;;;12.10;99.90;;;;;;4972077;28;20057;-79
2021/09/09 02:47:57;;;;;;;55.17;33.45;;;12.00;99.90;;;;;;4995989;28;20127;-79
2021/09/09 02:50:24;;;;;;;52.42;31.65;;;12.00;99.90;;;;;;4990513;28;20049;-79
2021/09/09 02:52:51;;;;;;;59.13;34.17;;;12.10;99.90;;;;;;4992190;28;20057;-81
2021/09/09 02:55:18;;;;;;;50.35;33.22;;;12.20;99.90;;;;;;5006789;28;20657;-80
2021/09/09 02:57:44;;;;;;;40.40;27.92;;;12.10;99.90;;;;;;5002096;28;20053;-79
2021/09/09 03:00:12;;;;;;;59.40;35.30;;;12.00;99.90;;;;;;4984427;28;20054;-78
2021/09/09 03:02:39;;;;;;;46.80;30.95;;;12.20;99.90;;;;;;5003450;28;20084;-79
2021/09/09 03:05:08;;;;;;;53.58;32.60;;;12.30;99.90;;;;;;4983524;28;20052;-80
2021/09/09 03:07:35;;;;;;;58.17;34.70;;;12.20;99.90;;;;;;4991615;28;20132;-80
2021/09/09 03:10:02;;;;;;;54.40;35.40;;;12.30;99.90;;;;;;4992062;28;20590;-79
2021/09/09 03:12:29;;;;;;;53.05;33.22;;;12.30;99.90;;;;;;4991926;28;20046;-79
2021/09/09 03:14:56;;;;;;;47.92;32.17;;;12.20;99.90;;;;;;4992385;28;20049;-79
2021/09/09 03:17:23;;;;;;;54.05;33.22;;;12.20;99.90;;;;;;4997702;28;20571;-80
2021/09/09 03:19:50;;;;;;;54.70;33.22;;;12.40;99.90;;;;;;5001269;28;20046;-79
2021/09/09 03:22:17;;;;;;;51.00;33.70;;;12.50;99.90;;;;;;4975835;28;20046;-78
2021/09/09 03:24:43;;;;;;;52.30;32.40;;;12.40;99.90;;;;;;4992421;28;20050;-79
2021/09/09 03:27:10;;;;;;;52.60;33.78;;;12.30;99.90;;;;;;4992184;28;20053;-78
2021/09/09 03:29:37;;;;;;;45.30;31.70;;;12.30;99.90;;;;;;4992676;28;20077;-80
2021/09/09 03:32:04;;;;;;;53.33;33.97;;;12.40;99.90;;;;;;4976459;28;20052;-79
2021/09/09 03:34:31;;;;;;;53.92;33.72;;;12.40;99.90;;;;;;4975925;28;20046;-79
2021/09/09 03:36:58;;;;;;;52.80;32.95;;;12.50;99.90;;;;;;4976089;28;20046;-79
2021/09/09 03:39:25;;;;;;;61.65;35.60;;;12.40;99.90;;;;;;4973289;28;20080;-79
2021/09/09 03:41:51;;;;;;;46.67;31.70;;;12.40;99.90;;;;;;5007935;28;20060;-79
2021/09/09 03:44:18;;;;;;;47.35;31.60;;;12.40;99.90;;;;;;5013222;28;20049;-79
2021/09/09 03:46:45;;;;;;;47.20;31.42;;;12.50;99.90;;;;;;4984683;28;20046;-79
2021/09/09 03:49:12;;;;;;;47.25;30.83;;;12.30;99.90;;;;;;4987857;28;20112;-80
2021/09/09 03:51:39;;;;;;;47.22;29.83;;;12.30;99.90;;;;;;5029897;28;20410;-80
2021/09/09 03:54:05;;;;;;;47.50;30.17;;;12.40;99.90;;;;;;4995876;28;20049;-79
2021/09/09 03:56:32;;;;;;;52.25;32.78;;;12.30;99.90;;;;;;5026438;28;20057;-80
2021/09/09 03:58:59;;;;;;;55.70;34.60;;;12.40;99.90;;;;;;5012591;28;20049;-81
2021/09/09 04:01:26;;;;;;;54.45;33.55;;;12.40;99.90;;;;;;4995063;28;20046;-81
2021/09/09 04:03:53;;;;;;;50.40;28.98;;;12.50;99.90;;;;;;4998631;28;20048;-82
2021/09/09 04:06:21;;;;;;;47.00;28.88;;;12.40;99.90;;;;;;4994224;28;20576;-82
2021/09/09 04:08:48;;;;;;;46.15;30.00;;;12.50;99.90;;;;;;5009490;28;20076;-82
2021/09/09 04:11:15;;;;;;;52.97;31.60;;;12.50;99.90;;;;;;5027481;28;20045;-81
2021/09/09 04:13:42;;;;;;;50.58;32.33;;;12.60;99.90;;;;;;5009310;28;20046;-81
2021/09/09 04:16:09;;;;;;;46.10;29.80;;;12.60;99.90;;;;;;4990595;28;20113;-82
2021/09/09 04:18:36;;;;;;;42.88;28.50;;;12.50;99.90;;;;;;4990563;28;20068;-81
2021/09/09 04:21:03;;;;;;;41.88;28.08;;;12.70;99.90;;;;;;4989745;28;20050;-81
2021/09/09 04:23:29;;;;;;;48.83;31.35;;;12.50;99.90;;;;;;4974328;28;20088;-81
2021/09/09 04:25:56;;;;;;;47.92;30.50;;;12.50;99.90;;;;;;5022940;28;20057;-81
2021/09/09 04:28:23;;;;;;;41.25;27.88;;;12.50;99.90;;;;;;4974084;28;20419;-79
2021/09/09 04:30:52;;;;;;;43.72;29.30;;;12.40;99.90;;;;;;4996494;28;20041;-79
2021/09/09 04:33:20;;;;;;;44.88;30.35;;;12.40;99.90;;;;;;4984981;28;20050;-82
2021/09/09 04:35:46;;;;;;;47.13;29.65;;;12.40;99.90;;;;;;4981411;28;20045;-79
2021/09/09 04:38:13;;;;;;;45.10;28.45;;;12.40;99.90;;;;;;4974734;28;20508;-83
2021/09/09 04:40:40;;;;;;;45.30;30.27;;;12.40;99.90;;;;;;5004879;28;20054;-81
2021/09/09 04:43:07;;;;;;;56.17;34.20;;;12.40;99.90;;;;;;4990057;28;20076;-81
2021/09/09 04:45:34;;;;;;;51.35;32.53;;;12.30;99.90;;;;;;5005609;28;20405;-82
2021/09/09 04:48:01;;;;;;;52.13;33.58;;;12.40;99.90;;;;;;5011756;28;20038;-79
2021/09/09 04:50:28;;;;;;;50.92;32.78;;;12.50;99.90;;;;;;4994600;28;20056;-80
2021/09/09 04:52:55;;;;;;;49.20;31.15;;;12.50;99.90;;;;;;4993740;28;20326;-79
2021/09/09 04:55:22;;;;;;;55.00;32.33;;;12.50;99.90;;;;;;4987974;28;20193;-81
2021/09/09 04:57:49;;;;;;;46.97;30.95;;;12.40;99.90;;;;;;4989797;28;20064;-79
2021/09/09 05:00:16;;;;;;;56.80;34.08;;;12.50;99.90;;;;;;5015996;28;20108;-79
2021/09/09 05:02:42;;;;;;;44.45;28.90;;;12.40;99.90;;;;;;5017253;28;20648;-80
2021/09/09 05:05:10;;;;;;;41.42;28.42;;;12.40;99.90;;;;;;4971829;28;20092;-80
2021/09/09 05:07:37;;;;;;;45.92;29.40;;;12.40;99.90;;;;;;5004679;28;20053;-80
2021/09/09 05:10:05;;;;;;;47.92;30.10;;;12.40;99.90;;;;;;4987145;28;20049;-80
2021/09/09 05:12:32;;;;;;;42.35;27.83;;;12.60;99.90;;;;;;4977965;28;20131;-80
2021/09/09 05:14:59;;;;;;;40.15;25.90;;;12.60;99.90;;;;;;5021949;28;20041;-80
2021/09/09 05:17:26;;;;;;;41.00;26.98;;;12.60;99.90;;;;;;4993652;28;20046;-80
2021/09/09 05:19:53;;;;;;;38.80;24.98;;;12.60;99.90;;;;;;4995684;28;20046;-80
2021/09/09 05:22:20;;;;;;;45.78;27.52;;;12.60;99.90;;;;;;4978475;28;20054;-80
2021/09/09 05:24:47;;;;;;;46.63;30.35;;;12.70;99.90;;;;;;5004341;28;20088;-80
2021/09/09 05:27:13;;;;;;;40.55;28.92;;;12.70;99.90;;;;;;4988388;28;20045;-80
2021/09/09 05:29:40;;;;;;;36.70;26.13;;;12.80;99.90;;;;;;4988620;28;20274;-80
2021/09/09 05:32:07;;;;;;;33.05;24.65;;;12.90;99.90;;;;;;5003856;28;20077;-80
2021/09/09 05:34:34;;;;;;;31.05;22.80;;;13.00;99.90;;;;;;5004081;28;20045;-80
2021/09/09 05:37:01;;;;;;;38.95;25.30;;;13.10;99.90;;;;;;4987461;28;20081;-80
2021/09/09 05:39:27;;;;;;;33.05;24.98;;;13.20;99.90;;;;;;4988109;28;20053;-80
2021/09/09 05:41:54;;;;;;;33.78;23.25;;;13.30;99.90;;;;;;4988316;28;20057;-80
2021/09/09 05:44:21;;;;;;;35.58;23.38;;;13.50;99.90;;;;;;4988232;28;20419;-80
2021/09/09 05:46:48;;;;;;;31.75;23.98;;;13.50;99.90;;;;;;4986088;28;20041;-81
2021/09/09 05:49:15;;;;;;;36.42;24.70;;;13.60;99.90;;;;;;5015283;28;20061;-82
2021/09/09 05:51:42;;;;;;;34.03;24.05;;;13.60;99.90;;;;;;4989970;28;20535;-82
2021/09/09 05:54:09;;;;;;;37.45;24.92;;;13.50;99.90;;;;;;4976175;28;20083;-81
2021/09/09 05:56:36;;;;;;;34.58;24.50;;;13.50;99.90;;;;;;4974846;28;20069;-79
2021/09/09 05:59:03;;;;;;;32.38;24.27;;;13.50;99.90;;;;;;5004212;28;20129;-79
2021/09/09 06:01:30;;;;;;;36.67;25.15;;;13.50;99.90;;;;;;4989305;28;20054;-80
2021/09/09 06:03:58;;;;;;;33.10;22.92;;;13.50;99.90;;;;;;5004960;28;20046;-79
2021/09/09 06:06:25;;;;;;;34.10;24.75;;;13.50;99.90;;;;;;5003108;28;20488;-80
2021/09/09 06:08:52;;;;;;;38.83;27.02;;;13.50;99.90;;;;;;5020722;28;20131;-80
2021/09/09 06:11:19;;;;;;;34.95;24.58;;;13.60;99.90;;;;;;4990478;28;20081;-79
2021/09/09 06:13:46;;;;;;;34.05;24.17;;;13.50;99.90;;;;;;5005884;28;20234;-79
2021/09/09 06:16:13;;;;;;;34.53;23.05;;;13.50;99.90;;;;;;5005176;28;20050;-81
2021/09/09 06:18:40;;;;;;;30.60;21.88;;;13.70;99.90;;;;;;4972173;28;20104;-81
2021/09/09 06:21:07;;;;;;;33.28;23.80;;;13.70;99.90;;;;;;5009238;28;20046;-79
2021/09/09 06:23:34;;;;;;;31.88;24.13;;;13.90;99.90;;;;;;4993587;28;20056;-79
2021/09/09 06:26:17;;;;;;;27.80;21.90;;;13.90;99.90;;;;;;5003600;28;20049;-80
2021/09/09 06:28:45;;;;;;;30.00;22.40;;;14.10;99.90;;;;;;4989272;28;20411;-79
2021/09/09 06:31:12;;;;;;;28.52;19.30;;;14.30;99.90;;;;;;4988999;28;20077;-79
2021/09/09 06:33:39;;;;;;;32.25;20.75;;;14.30;99.90;;;;;;4979942;28;20547;-79
2021/09/09 06:36:06;;;;;;;24.25;18.08;;;14.50;99.90;;;;;;5012109;28;20049;-78
2021/09/09 06:38:33;;;;;;;25.35;18.90;;;14.70;99.90;;;;;;4995586;28;20136;-82
2021/09/09 06:40:59;;;;;;;25.63;19.92;;;14.80;99.90;;;;;;4993825;28;20049;-80
2021/09/09 06:43:26;;;;;;;24.60;18.33;;;15.00;99.90;;;;;;5010018;28;20050;-79
2021/09/09 06:45:53;;;;;;;26.90;19.42;;;15.10;99.90;;;;;;5009959;28;20050;-79
2021/09/09 06:48:20;;;;;;;26.73;18.50;;;15.10;99.90;;;;;;4993523;28;20385;-79
2021/09/09 06:50:47;;;;;;;24.75;18.58;;;15.30;99.90;;;;;;4988028;28;20046;-79
2021/09/09 06:53:13;;;;;;;21.52;16.05;;;15.40;99.90;;;;;;5025970;28;20049;-78
2021/09/09 06:55:40;;;;;;;24.52;17.77;;;15.50;99.90;;;;;;5000958;28;20124;-82
2021/09/09 06:58:07;;;;;;;21.95;17.25;;;15.70;99.90;;;;;;4988584;28;20054;-78
2021/09/09 07:00:34;;;;;;;24.77;15.38;;;15.90;99.90;;;;;;5012536;28;20125;-80
2021/09/09 07:03:01;;;;;;;21.85;15.20;;;16.10;99.90;;;;;;4999356;28;20140;-81
2021/09/09 07:05:29;;;;;;;22.52;16.60;;;16.40;99.90;;;;;;5008930;28;20080;-81
2021/09/09 07:07:55;;;;;;;21.70;15.70;;;16.60;99.90;;;;;;5008511;28;20057;-81
2021/09/09 07:10:24;;;;;;;20.40;16.27;;;16.90;99.90;;;;;;4993427;28;20091;-79
2021/09/09 07:12:51;;;;;;;18.63;15.93;;;17.10;99.90;;;;;;4992117;28;20049;-80
2021/09/09 07:15:18;;;;;;;16.92;15.23;;;17.30;99.90;;;;;;5024125;28;20082;-79
2021/09/09 07:17:45;;;;;;;23.15;17.80;;;17.60;99.90;;;;;;4991707;28;20053;-80
2021/09/09 07:20:13;;;;;;;19.13;16.77;;;17.90;99.90;;;;;;5025146;28;20410;-79
2021/09/09 07:22:39;;;;;;;21.33;18.23;;;18.30;99.90;;;;;;5002031;28;20144;-80
2021/09/09 07:25:07;;;;;;;18.98;17.08;;;18.40;99.90;;;;;;5013107;28;20084;-80
2021/09/09 07:27:34;;;;;;;18.65;16.95;;;18.70;99.90;;;;;;5027595;28;20049;-78
2021/09/09 07:30:01;;;;;;;19.00;17.30;;;18.80;99.90;;;;;;4984085;28;20758;-79
2021/09/09 07:32:28;;;;;;;19.98;18.00;;;19.00;99.90;;;;;;4988209;28;20496;-81
2021/09/09 07:34:55;;;;;;;20.17;18.27;;;19.30;99.90;;;;;;4991610;28;20046;-81
2021/09/09 07:37:21;;;;;;;20.33;18.30;;;19.50;99.90;;;;;;4974874;28;20133;-81
2021/09/09 07:39:48;;;;;;;20.27;18.40;;;19.60;99.90;;;;;;4976181;28;20065;-80
2021/09/09 07:42:15;;;;;;;19.27;17.55;;;19.70;99.90;;;;;;4991925;28;20053;-79
2021/09/09 07:44:42;;;;;;;20.02;18.13;;;19.70;99.90;;;;;;4976000;28;20120;-80
2021/09/09 07:47:09;;;;;;;20.55;18.73;;;19.80;99.90;;;;;;5008665;28;20370;-80
2021/09/09 07:49:35;;;;;;;20.58;18.58;;;19.90;99.90;;;;;;4992574;28;20042;-80
2021/09/09 07:52:03;;;;;;;20.23;18.52;;;20.00;99.90;;;;;;5031352;28;20092;-81
2021/09/09 07:54:29;;;;;;;21.92;19.83;;;20.10;99.90;;;;;;4994149;28;20061;-82
2021/09/09 07:56:56;;;;;;;20.80;18.95;;;20.20;99.90;;;;;;5040616;28;20129;-81
2021/09/09 07:59:24;;;;;;;20.35;18.55;;;20.40;99.90;;;;;;5011587;28;20049;-79
2021/09/09 08:01:51;;;;;;;20.75;18.60;;;20.60;99.90;;;;;;4996784;28;20042;-79
2021/09/09 08:04:18;;;;;;;21.35;19.20;;;21.10;99.90;;;;;;4991035;28;20048;-80
2021/09/09 08:06:45;;;;;;;21.45;19.42;;;21.50;99.90;;;;;;4991391;28;20042;-80
2021/09/09 08:09:12;;;;;;;21.33;19.45;;;21.40;99.90;;;;;;4991996;28;20233;-79
2021/09/09 08:11:40;;;;;;;21.00;19.05;;;21.60;99.90;;;;;;4989471;28;20158;-80
2021/09/09 08:14:07;;;;;;;22.05;20.08;;;22.00;99.90;;;;;;4991134;28;20053;-81
2021/09/09 08:16:35;;;;;;;20.88;19.05;;;21.70;99.90;;;;;;5023944;28;20049;-81
2021/09/09 08:19:02;;;;;;;20.95;19.13;;;21.80;99.90;;;;;;5007886;28;20056;-81
2021/09/09 08:21:29;;;;;;;21.23;19.35;;;21.70;99.90;;;;;;5006826;28;20050;-82
2021/09/09 08:23:56;;;;;;;20.58;18.48;;;21.80;99.90;;;;;;5004515;28;20125;-81
2021/09/09 08:26:23;;;;;;;21.02;19.27;;;21.50;99.90;;;;;;5009458;28;20045;-81
2021/09/09 08:28:50;;;;;;;21.88;18.92;;;21.60;99.90;;;;;;5023405;28;20620;-81
2021/09/09 08:31:16;;;;;;;22.05;19.88;;;22.00;99.90;;;;;;5006979;28;20046;-81
2021/09/09 08:33:43;;;;;;;20.98;19.20;;;22.50;99.90;;;;;;4972127;28;20050;-80
2021/09/09 08:36:12;;;;;;;20.83;19.13;;;22.60;99.90;;;;;;4989052;28;20050;-80
2021/09/09 08:38:39;;;;;;;21.38;19.50;;;22.50;99.90;;;;;;4988380;28;20097;-80
2021/09/09 08:41:06;;;;;;;22.20;20.30;;;22.90;99.90;;;;;;5030172;28;20046;-81
2021/09/09 08:43:33;;;;;;;21.35;19.52;;;22.60;99.90;;;;;;5009768;28;20420;-79
2021/09/09 08:46:02;;;;;;;21.45;19.58;;;22.70;99.90;;;;;;4988233;28;20133;-78
2021/09/09 08:48:30;;;;;;;22.15;20.17;;;23.00;99.90;;;;;;5005647;28;20124;-79
2021/09/09 08:50:57;;;;;;;20.98;19.45;;;22.80;99.90;;;;;;5001369;28;20041;-79
2021/09/09 08:53:25;;;;;;;21.77;19.75;;;22.80;99.90;;;;;;5003916;28;20049;-78
2021/09/09 08:55:52;;;;;;;21.55;19.67;;;22.90;99.90;;;;;;4988502;28;20049;-79
2021/09/09 08:58:19;;;;;;;20.52;18.83;;;22.70;99.90;;;;;;5032181;28;20046;-80
2021/09/09 09:01:14;;;;;;;21.20;19.50;;;22.40;99.90;;;;;;4993974;28;20045;-81
2021/09/09 09:03:54;;;;;;;21.10;19.45;;;22.60;99.90;;;;;;4999354;28;20046;-78
2021/09/09 09:06:25;;;;;;;21.85;20.15;;;22.80;99.90;;;;;;5021127;28;20042;-79
2021/09/09 09:08:58;;;;;;;21.90;20.15;;;22.80;99.90;;;;;;4970934;28;20583;-80
2021/09/09 09:11:34;;;;;;;21.63;19.38;;;22.90;99.90;;;;;;4997229;28;20133;-80
2021/09/09 09:14:02;;;;;;;20.42;18.88;;;22.90;99.90;;;;;;4976871;28;20148;-78
2021/09/09 09:16:29;;;;;;;20.17;18.55;;;23.10;99.90;;;;;;4974805;28;20054;-79
2021/09/09 09:18:58;;;;;;;20.95;19.15;;;23.20;99.90;;;;;;5007259;28;20443;-80
2021/09/09 09:21:27;;;;;;;21.63;19.90;;;23.20;99.90;;;;;;5010409;28;20045;-81
2021/09/09 09:23:57;;;;;;;22.27;20.35;;;23.40;99.90;;;;;;5011872;28;20046;-79
2021/09/09 09:26:26;;;;;;;22.02;20.00;;;23.50;99.90;;;;;;5006636;28;20128;-78
2021/09/09 09:29:00;;;;;;;21.88;20.02;;;23.60;99.90;;;;;;5023088;28;20484;-81
2021/09/09 09:31:30;;;;;;;22.10;20.30;;;23.50;99.90;;;;;;5022406;28;20045;-80
2021/09/09 09:34:17;;;;;;;21.58;19.88;;;23.70;99.90;;;;;;5006392;28;20151;-81
2021/09/09 09:36:44;;;;;;;21.95;20.33;;;23.70;99.90;;;;;;4973285;28;20490;-80
2021/09/09 09:39:19;;;;;;;21.40;19.60;;;24.00;99.90;;;;;;4991300;28;20503;-80
2021/09/09 09:41:52;;;;;;;21.75;19.85;;;24.00;99.90;;;;;;5005073;28;20111;-81
2021/09/09 09:44:28;;;;;;;22.30;20.30;;;24.20;99.90;;;;;;4974368;28;20042;-80
2021/09/09 09:47:19;;;;;;;22.45;20.58;;;24.40;99.90;;;;;;5000720;28;20045;-81
2021/09/09 09:49:49;;;;;;;21.48;19.88;;;24.30;99.90;;;;;;5032658;28;20054;-80
2021/09/09 09:52:23;;;;;;;19.83;18.20;;;24.20;99.90;;;;;;5033822;28;20054;-79
2021/09/09 09:54:55;;;;;;;20.25;18.60;;;24.30;99.90;;;;;;5018080;28;20065;-79
2021/09/09 09:57:23;;;;;;;20.98;19.25;;;24.10;99.90;;;;;;4998854;28;20676;-80
2021/09/09 09:59:51;;;;;;;21.58;19.77;;;24.40;99.90;;;;;;5006099;28;20045;-81
2021/09/09 10:02:18;;;;;;;21.77;19.98;;;24.40;99.90;;;;;;5006354;28;20050;-80
2021/09/09 10:04:49;;;;;;;21.17;19.42;;;24.80;99.90;;;;;;5023555;28;20129;-80
2021/09/09 10:07:16;;;;;;;21.35;19.58;;;25.00;99.90;;;;;;4989161;28;20453;-80
2021/09/09 10:09:46;;;;;;;21.55;19.77;;;24.90;99.90;;;;;;4989494;28;20045;-82
2021/09/09 10:12:13;;;;;;;21.05;19.35;;;25.00;99.90;;;;;;4988560;28;20133;-82
2021/09/09 10:14:45;;;;;;;21.73;19.95;;;25.40;99.90;;;;;;4992693;28;20058;-81
2021/09/09 10:17:16;;;;;;;20.98;19.08;;;25.60;99.90;;;;;;5008574;28;20088;-81
2021/09/09 10:19:45;;;;;;;22.33;20.42;;;25.60;99.90;;;;;;5012943;28;20068;-79
2021/09/09 10:22:32;;;;;;;21.92;19.90;;;25.60;99.90;;;;;;4991599;28;20840;-78
2021/09/09 10:25:05;;;;;;;21.58;19.75;;;25.90;99.90;;;;;;5002544;28;20056;-80
2021/09/09 10:27:41;;;;;;;21.13;19.33;;;25.90;99.90;;;;;;4997014;28;20706;-81
2021/09/09 10:30:18;;;;;;;21.48;19.45;;;25.70;99.90;;;;;;4988230;28;20526;-81
2021/09/09 10:32:49;;;;;;;22.17;19.83;;;25.50;99.90;;;;;;5009114;28;20333;-80
2021/09/09 10:35:20;;;;;;;21.20;19.50;;;25.10;99.90;;;;;;4990687;28;20046;-79
2021/09/09 10:37:47;;;;;;;22.25;20.33;;;25.20;99.90;;;;;;5002662;28;20800;-80
2021/09/09 10:40:46;;;;;;;21.15;19.23;;;25.30;99.90;;;;;;5036563;28;20050;-79
2021/09/09 10:43:25;;;;;;;20.95;19.20;;;25.40;99.90;;;;;;5001255;28;20254;-79
2021/09/09 10:46:10;;;;;;;21.25;19.35;;;25.80;99.90;;;;;;4988392;28;20072;-81
2021/09/09 10:48:38;;;;;;;21.80;19.98;;;26.10;99.90;;;;;;4990672;28;20049;-80
2021/09/09 10:51:12;;;;;;;20.95;19.35;;;25.40;99.90;;;;;;4987993;28;20037;-80
2021/09/09 10:53:47;;;;;;;21.52;19.33;;;25.00;99.90;;;;;;4972951;28;20056;-81
2021/09/09 10:56:18;;;;;;;;;;;25.00;99.90;;;;;;4979614;28;20050;-79
2021/09/09 10:58:45;;;;;;;21.00;19.15;;;25.00;99.90;;;;;;4989275;28;19927;-81
2021/09/09 11:01:12;;;;;;;20.63;18.83;;;25.30;99.90;;;;;;4986285;28;20049;-80
2021/09/09 11:03:47;;;;;;;20.65;18.95;;;25.60;99.90;;;;;;4990653;28;20700;-78
2021/09/09 11:06:17;;;;;;;;;;;26.10;99.90;;;;;;4996864;28;20038;-79
2021/09/09 11:08:47;;;;;;;20.77;18.88;;;25.90;99.90;;;;;;5003898;28;19924;-79
2021/09/09 11:11:30;;;;;;;20.83;19.00;;;25.80;99.90;;;;;;4995191;28;20038;-77
2021/09/09 11:14:05;;;;;;;20.50;18.38;;;25.70;99.90;;;;;;5018130;28;20041;-80
2021/09/09 11:16:34;;;;;;;20.60;18.90;;;26.10;99.90;;;;;;5017744;28;20045;-80
2021/09/09 11:19:04;;;;;;;21.15;19.48;;;26.20;99.90;;;;;;5011943;28;20099;-80
2021/09/09 11:21:36;;;;;;;20.67;18.83;;;25.90;99.90;;;;;;4983731;28;20058;-81
2021/09/09 11:24:12;;;;;;;20.55;18.92;;;26.10;99.90;;;;;;4993571;28;20235;-80
2021/09/09 11:26:42;;;;;;;19.88;17.27;;;25.90;99.90;;;;;;4977422;28;20053;-79
2021/09/09 11:29:09;;;;;;;20.00;18.08;;;25.80;99.90;;;;;;4993306;28;20057;-80
2021/09/09 11:31:51;;;;;;;19.67;18.08;;;25.90;99.90;;;;;;4976862;28;20046;-80
2021/09/09 11:34:31;;;;;;;19.58;17.50;;;26.00;99.90;;;;;;5009863;28;20446;-80
2021/09/09 11:37:03;;;;;;;19.92;18.30;;;25.80;99.90;;;;;;4992686;28;20053;-79
2021/09/09 11:39:33;;;;;;;21.08;19.23;;;25.90;99.90;;;;;;5007703;28;20058;-80
2021/09/09 11:42:00;;;;;;;19.40;17.92;;;26.50;99.90;;;;;;4974947;28;20100;-78
2021/09/09 11:44:36;;;;;;;20.45;18.85;;;26.90;99.90;;;;;;4991084;28;20054;-81
2021/09/09 11:47:12;;;;;;;19.63;18.13;;;27.40;99.90;;;;;;4990708;28;20046;-80
2021/09/09 11:49:39;;;;;;;19.95;18.45;;;27.30;99.90;;;;;;4991635;28;20053;-80
2021/09/09 11:52:07;;;;;;;20.42;18.63;;;27.10;99.90;;;;;;4987506;28;20042;-82
2021/09/09 11:54:37;;;;;;;20.77;19.08;;;26.60;99.90;;;;;;4979862;28;20069;-79
2021/09/09 11:57:17;;;;;;;20.38;18.63;;;26.60;99.90;;;;;;4976074;28;20121;-80
2021/09/09 11:59:58;;;;;;;19.58;18.08;;;26.40;99.90;;;;;;4975646;28;20054;-79
2021/09/09 12:02:30;;;;;;;19.95;18.40;;;26.40;99.90;;;;;;4992535;28;20046;-80
2021/09/09 12:05:07;;;;;;;20.92;19.02;;;26.70;99.90;;;;;;4978742;28;20061;-79
2021/09/09 12:07:36;;;;;;;19.92;18.25;;;26.80;99.90;;;;;;4974854;28;20057;-78
2021/09/09 12:10:12;;;;;;;19.45;17.90;;;27.10;99.90;;;;;;4987760;28;20042;-79
2021/09/09 12:12:39;;;;;;;20.35;18.85;;;27.10;99.90;;;;;;4987491;28;20045;-81
2021/09/09 12:15:11;;;;;;;20.17;18.40;;;27.20;99.90;;;;;;4975778;28;20451;-81
2021/09/09 12:17:40;;;;;;;19.88;18.42;;;27.20;99.90;;;;;;4975080;28;20458;-80
2021/09/09 12:20:11;;;;;;;19.90;18.38;;;27.00;99.90;;;;;;4991249;28;20050;-79
2021/09/09 12:22:57;;;;;;;19.70;18.23;;;26.90;99.90;;;;;;5000035;28;20056;-81
2021/09/09 12:25:27;;;;;;;20.42;18.85;;;27.10;99.90;;;;;;4971397;28;20050;-79
2021/09/09 12:28:15;;;;;;;19.63;18.23;;;27.50;99.90;;;;;;4971821;28;20046;-80
2021/09/09 12:30:48;;;;;;;20.02;18.42;;;27.40;99.90;;;;;;4954234;28;20265;-80
2021/09/09 12:33:16;;;;;;;20.27;18.45;;;27.40;99.90;;;;;;4971645;28;20054;-80
2021/09/09 12:36:04;;;;;;;20.27;18.70;;;27.40;99.90;;;;;;4971821;28;20046;-80